sensor_id;sensor_type;location;lat;lon;timestamp;temperature;humidity
71672;DHT22;67659;45.554;11.812;2023-06-01T00:01:29;22.50;82.00
71672;DHT22;67659;45.554;11.812;2023-06-01T00:04:00;22.40;81.90
71672;DHT22;67659;45.554;11.812;2023-06-01T00:06:26;22.40;81.40
71672;DHT22;67659;45.554;11.812;2023-06-01T00:08:54;22.30;82.10
71672;DHT22;67659;45.554;11.812;2023-06-01T00:11:21;22.20;82.00
71672;DHT22;67659;45.554;11.812;2023-06-01T00:13:47;22.20;82.80
71672;DHT22;67659;45.554;11.812;2023-06-01T00:16:14;22.20;83.10
71672;DHT22;67659;45.554;11.812;2023-06-01T00:18:40;22.20;83.90
71672;DHT22;67659;45.554;11.812;2023-06-01T00:21:06;22.20;83.30
71672;DHT22;67659;45.554;11.812;2023-06-01T00:23:33;22.20;83.50
71672;DHT22;67659;45.554;11.812;2023-06-01T00:26:00;22.10;83.10
71672;DHT22;67659;45.554;11.812;2023-06-01T00:28:26;22.10;83.40
71672;DHT22;67659;45.554;11.812;2023-06-01T00:30:52;22.10;83.00
71672;DHT22;67659;45.554;11.812;2023-06-01T00:33:22;22.10;83.50
71672;DHT22;67659;45.554;11.812;2023-06-01T00:35:48;22.10;83.50
71672;DHT22;67659;45.554;11.812;2023-06-01T00:38:13;22.10;83.80
71672;DHT22;67659;45.554;11.812;2023-06-01T00:40:39;22.00;84.00
71672;DHT22;67659;45.554;11.812;2023-06-01T00:43:05;22.00;84.40
71672;DHT22;67659;45.554;11.812;2023-06-01T00:45:31;21.90;84.20
71672;DHT22;67659;45.554;11.812;2023-06-01T00:47:57;21.90;84.40
71672;DHT22;67659;45.554;11.812;2023-06-01T00:50:24;21.80;84.50
71672;DHT22;67659;45.554;11.812;2023-06-01T00:52:51;21.80;84.20
71672;DHT22;67659;45.554;11.812;2023-06-01T00:55:20;21.80;85.10
71672;DHT22;67659;45.554;11.812;2023-06-01T00:57:46;21.80;85.20
71672;DHT22;67659;45.554;11.812;2023-06-01T01:00:14;21.80;85.00
71672;DHT22;67659;45.554;11.812;2023-06-01T01:02:41;21.70;85.10
71672;DHT22;67659;45.554;11.812;2023-06-01T01:05:10;21.80;84.50
71672;DHT22;67659;45.554;11.812;2023-06-01T01:08:02;21.70;85.10
71672;DHT22;67659;45.554;11.812;2023-06-01T01:10:46;21.80;84.80
71672;DHT22;67659;45.554;11.812;2023-06-01T01:16:07;21.60;86.80
71672;DHT22;67659;45.554;11.812;2023-06-01T01:21:21;21.50;85.20
71672;DHT22;67659;45.554;11.812;2023-06-01T01:27:05;21.40;87.60
71672;DHT22;67659;45.554;11.812;2023-06-01T01:29:35;21.20;88.20
71672;DHT22;67659;45.554;11.812;2023-06-01T01:32:04;21.20;88.20
71672;DHT22;67659;45.554;11.812;2023-06-01T01:34:32;21.20;87.40
71672;DHT22;67659;45.554;11.812;2023-06-01T01:36:59;21.10;88.40
71672;DHT22;67659;45.554;11.812;2023-06-01T01:39:26;21.10;88.10
71672;DHT22;67659;45.554;11.812;2023-06-01T01:41:52;21.10;88.60
71672;DHT22;67659;45.554;11.812;2023-06-01T01:44:19;21.10;89.00
71672;DHT22;67659;45.554;11.812;2023-06-01T01:49:44;21.00;87.50
71672;DHT22;67659;45.554;11.812;2023-06-01T01:52:33;20.80;89.00
71672;DHT22;67659;45.554;11.812;2023-06-01T01:55:01;20.70;91.10
71672;DHT22;67659;45.554;11.812;2023-06-01T01:57:29;20.60;91.00
71672;DHT22;67659;45.554;11.812;2023-06-01T01:59:56;20.60;93.30
71672;DHT22;67659;45.554;11.812;2023-06-01T02:02:22;20.50;92.40
71672;DHT22;67659;45.554;11.812;2023-06-01T02:04:48;20.50;92.50
71672;DHT22;67659;45.554;11.812;2023-06-01T02:07:14;20.60;91.60
71672;DHT22;67659;45.554;11.812;2023-06-01T02:09:41;20.60;90.80
71672;DHT22;67659;45.554;11.812;2023-06-01T02:12:07;20.60;93.30
71672;DHT22;67659;45.554;11.812;2023-06-01T02:14:35;20.50;93.50
71672;DHT22;67659;45.554;11.812;2023-06-01T02:17:05;20.60;94.40
71672;DHT22;67659;45.554;11.812;2023-06-01T02:19:31;20.50;94.60
71672;DHT22;67659;45.554;11.812;2023-06-01T02:21:57;20.50;94.10
71672;DHT22;67659;45.554;11.812;2023-06-01T02:24:23;20.40;95.30
71672;DHT22;67659;45.554;11.812;2023-06-01T02:26:49;20.50;94.90
71672;DHT22;67659;45.554;11.812;2023-06-01T02:29:18;20.50;94.80
71672;DHT22;67659;45.554;11.812;2023-06-01T02:31:48;20.50;93.40
71672;DHT22;67659;45.554;11.812;2023-06-01T02:34:14;20.50;92.10
71672;DHT22;67659;45.554;11.812;2023-06-01T02:36:40;20.50;93.10
71672;DHT22;67659;45.554;11.812;2023-06-01T02:39:06;20.40;90.40
71672;DHT22;67659;45.554;11.812;2023-06-01T02:41:32;20.40;92.40
71672;DHT22;67659;45.554;11.812;2023-06-01T02:43:58;20.40;93.40
71672;DHT22;67659;45.554;11.812;2023-06-01T02:46:24;20.20;96.40
71672;DHT22;67659;45.554;11.812;2023-06-01T02:48:49;20.20;95.80
71672;DHT22;67659;45.554;11.812;2023-06-01T02:51:16;20.30;96.30
71672;DHT22;67659;45.554;11.812;2023-06-01T02:53:44;20.10;96.10
71672;DHT22;67659;45.554;11.812;2023-06-01T02:56:12;20.10;95.10
71672;DHT22;67659;45.554;11.812;2023-06-01T02:58:38;20.20;95.40
71672;DHT22;67659;45.554;11.812;2023-06-01T03:01:04;20.10;96.10
71672;DHT22;67659;45.554;11.812;2023-06-01T03:03:30;20.20;94.70
71672;DHT22;67659;45.554;11.812;2023-06-01T03:05:56;20.10;95.20
71672;DHT22;67659;45.554;11.812;2023-06-01T03:08:23;20.10;94.20
71672;DHT22;67659;45.554;11.812;2023-06-01T03:10:52;20.00;96.30
71672;DHT22;67659;45.554;11.812;2023-06-01T03:13:18;20.10;95.30
71672;DHT22;67659;45.554;11.812;2023-06-01T03:15:44;20.10;94.10
71672;DHT22;67659;45.554;11.812;2023-06-01T03:18:10;20.10;93.60
71672;DHT22;67659;45.554;11.812;2023-06-01T03:20:36;20.00;93.00
71672;DHT22;67659;45.554;11.812;2023-06-01T03:23:02;20.00;94.60
71672;DHT22;67659;45.554;11.812;2023-06-01T03:25:29;20.00;94.50
71672;DHT22;67659;45.554;11.812;2023-06-01T03:27:55;20.00;93.60
71672;DHT22;67659;45.554;11.812;2023-06-01T03:30:20;20.00;93.80
71672;DHT22;67659;45.554;11.812;2023-06-01T03:32:47;19.90;94.30
71672;DHT22;67659;45.554;11.812;2023-06-01T03:35:13;19.90;95.50
71672;DHT22;67659;45.554;11.812;2023-06-01T03:37:41;19.90;95.90
71672;DHT22;67659;45.554;11.812;2023-06-01T03:40:08;19.90;94.40
71672;DHT22;67659;45.554;11.812;2023-06-01T03:42:45;20.00;93.10
71672;DHT22;67659;45.554;11.812;2023-06-01T03:45:12;20.00;94.50
71672;DHT22;67659;45.554;11.812;2023-06-01T03:47:39;19.80;93.80
71672;DHT22;67659;45.554;11.812;2023-06-01T03:50:07;19.80;94.40
71672;DHT22;67659;45.554;11.812;2023-06-01T03:52:34;19.80;96.60
71672;DHT22;67659;45.554;11.812;2023-06-01T03:55:01;19.70;96.30
71672;DHT22;67659;45.554;11.812;2023-06-01T03:57:28;19.80;99.60
71672;DHT22;67659;45.554;11.812;2023-06-01T03:59:53;19.80;97.30
71672;DHT22;67659;45.554;11.812;2023-06-01T04:02:19;19.80;99.90
71672;DHT22;67659;45.554;11.812;2023-06-01T04:04:47;19.80;99.90
71672;DHT22;67659;45.554;11.812;2023-06-01T04:07:14;19.90;99.50
71672;DHT22;67659;45.554;11.812;2023-06-01T04:09:44;19.80;99.60
71672;DHT22;67659;45.554;11.812;2023-06-01T04:12:12;19.80;97.80
71672;DHT22;67659;45.554;11.812;2023-06-01T04:14:38;19.80;99.00
71672;DHT22;67659;45.554;11.812;2023-06-01T04:17:05;19.80;99.90
71672;DHT22;67659;45.554;11.812;2023-06-01T04:19:32;19.90;99.90
71672;DHT22;67659;45.554;11.812;2023-06-01T04:21:59;20.00;99.90
71672;DHT22;67659;45.554;11.812;2023-06-01T04:24:25;20.00;99.90
71672;DHT22;67659;45.554;11.812;2023-06-01T04:26:51;20.10;99.90
71672;DHT22;67659;45.554;11.812;2023-06-01T04:29:17;20.10;99.90
71672;DHT22;67659;45.554;11.812;2023-06-01T04:31:46;20.00;99.90
71672;DHT22;67659;45.554;11.812;2023-06-01T04:34:12;20.10;99.90
71672;DHT22;67659;45.554;11.812;2023-06-01T04:36:38;20.10;99.90
71672;DHT22;67659;45.554;11.812;2023-06-01T04:39:07;20.20;99.90
71672;DHT22;67659;45.554;11.812;2023-06-01T04:41:35;20.20;99.90
71672;DHT22;67659;45.554;11.812;2023-06-01T04:44:01;20.30;98.30
71672;DHT22;67659;45.554;11.812;2023-06-01T04:46:31;20.40;99.90
71672;DHT22;67659;45.554;11.812;2023-06-01T04:48:58;20.50;99.90
71672;DHT22;67659;45.554;11.812;2023-06-01T04:51:26;20.50;99.90
71672;DHT22;67659;45.554;11.812;2023-06-01T04:53:53;20.70;99.90
71672;DHT22;67659;45.554;11.812;2023-06-01T04:56:20;20.70;99.90
71672;DHT22;67659;45.554;11.812;2023-06-01T04:58:51;20.80;99.90
71672;DHT22;67659;45.554;11.812;2023-06-01T05:01:17;20.90;99.90
71672;DHT22;67659;45.554;11.812;2023-06-01T05:03:44;21.10;99.90
71672;DHT22;67659;45.554;11.812;2023-06-01T05:06:14;21.10;99.00
71672;DHT22;67659;45.554;11.812;2023-06-01T05:08:41;21.30;98.90
71672;DHT22;67659;45.554;11.812;2023-06-01T05:11:08;21.40;98.10
71672;DHT22;67659;45.554;11.812;2023-06-01T05:13:38;21.40;96.10
71672;DHT22;67659;45.554;11.812;2023-06-01T05:16:05;21.60;96.60
71672;DHT22;67659;45.554;11.812;2023-06-01T05:18:32;21.60;97.90
71672;DHT22;67659;45.554;11.812;2023-06-01T05:20:59;21.70;93.90
71672;DHT22;67659;45.554;11.812;2023-06-01T05:23:26;21.80;92.60
71672;DHT22;67659;45.554;11.812;2023-06-01T05:25:52;22.00;92.00
71672;DHT22;67659;45.554;11.812;2023-06-01T05:28:20;22.10;92.10
71672;DHT22;67659;45.554;11.812;2023-06-01T05:30:47;22.20;92.10
71672;DHT22;67659;45.554;11.812;2023-06-01T05:33:13;22.40;93.30
71672;DHT22;67659;45.554;11.812;2023-06-01T05:35:39;22.50;90.30
71672;DHT22;67659;45.554;11.812;2023-06-01T05:38:04;22.60;89.50
71672;DHT22;67659;45.554;11.812;2023-06-01T05:40:30;22.80;90.40
71672;DHT22;67659;45.554;11.812;2023-06-01T05:42:56;23.00;89.50
71672;DHT22;67659;45.554;11.812;2023-06-01T05:45:22;23.10;89.50
71672;DHT22;67659;45.554;11.812;2023-06-01T05:47:48;23.30;88.50
71672;DHT22;67659;45.554;11.812;2023-06-01T05:50:14;23.60;87.50
71672;DHT22;67659;45.554;11.812;2023-06-01T05:52:40;23.60;87.50
71672;DHT22;67659;45.554;11.812;2023-06-01T05:55:08;23.70;88.10
71672;DHT22;67659;45.554;11.812;2023-06-01T05:57:34;23.90;85.70
71672;DHT22;67659;45.554;11.812;2023-06-01T05:59:59;24.10;86.80
71672;DHT22;67659;45.554;11.812;2023-06-01T06:02:25;24.10;88.10
71672;DHT22;67659;45.554;11.812;2023-06-01T06:04:51;24.20;87.50
71672;DHT22;67659;45.554;11.812;2023-06-01T06:07:17;24.50;87.00
71672;DHT22;67659;45.554;11.812;2023-06-01T06:09:43;24.60;87.60
71672;DHT22;67659;45.554;11.812;2023-06-01T06:12:09;24.80;84.20
71672;DHT22;67659;45.554;11.812;2023-06-01T06:14:35;25.00;83.50
71672;DHT22;67659;45.554;11.812;2023-06-01T06:17:01;25.20;83.20
71672;DHT22;67659;45.554;11.812;2023-06-01T06:19:28;25.40;82.70
71672;DHT22;67659;45.554;11.812;2023-06-01T06:21:54;25.60;81.70
71672;DHT22;67659;45.554;11.812;2023-06-01T06:24:19;25.80;81.30
71672;DHT22;67659;45.554;11.812;2023-06-01T06:26:45;25.90;80.60
71672;DHT22;67659;45.554;11.812;2023-06-01T06:29:12;26.10;80.20
71672;DHT22;67659;45.554;11.812;2023-06-01T06:31:38;26.20;80.10
71672;DHT22;67659;45.554;11.812;2023-06-01T06:34:04;26.30;79.90
71672;DHT22;67659;45.554;11.812;2023-06-01T06:36:30;26.50;77.60
71672;DHT22;67659;45.554;11.812;2023-06-01T06:38:57;26.60;78.60
71672;DHT22;67659;45.554;11.812;2023-06-01T06:41:23;26.70;78.40
71672;DHT22;67659;45.554;11.812;2023-06-01T06:43:48;26.90;77.50
71672;DHT22;67659;45.554;11.812;2023-06-01T06:46:14;27.00;76.30
71672;DHT22;67659;45.554;11.812;2023-06-01T06:48:40;27.20;76.30
71672;DHT22;67659;45.554;11.812;2023-06-01T06:51:06;27.20;74.60
71672;DHT22;67659;45.554;11.812;2023-06-01T06:53:32;27.30;75.20
71672;DHT22;67659;45.554;11.812;2023-06-01T06:55:58;27.50;75.60
71672;DHT22;67659;45.554;11.812;2023-06-01T06:58:24;27.50;74.70
71672;DHT22;67659;45.554;11.812;2023-06-01T07:00:50;27.60;73.60
71672;DHT22;67659;45.554;11.812;2023-06-01T07:03:16;27.70;75.90
71672;DHT22;67659;45.554;11.812;2023-06-01T07:05:42;28.00;75.20
71672;DHT22;67659;45.554;11.812;2023-06-01T07:08:11;28.20;74.50
71672;DHT22;67659;45.554;11.812;2023-06-01T07:10:37;28.30;74.70
71672;DHT22;67659;45.554;11.812;2023-06-01T07:13:03;28.50;73.10
71672;DHT22;67659;45.554;11.812;2023-06-01T07:15:28;28.60;73.90
71672;DHT22;67659;45.554;11.812;2023-06-01T07:17:54;28.60;74.00
71672;DHT22;67659;45.554;11.812;2023-06-01T07:20:20;28.80;73.40
71672;DHT22;67659;45.554;11.812;2023-06-01T07:22:46;28.70;74.10
71672;DHT22;67659;45.554;11.812;2023-06-01T07:25:13;28.70;71.30
71672;DHT22;67659;45.554;11.812;2023-06-01T07:27:39;28.80;73.20
71672;DHT22;67659;45.554;11.812;2023-06-01T07:30:09;28.70;73.20
71672;DHT22;67659;45.554;11.812;2023-06-01T07:32:36;28.80;72.80
71672;DHT22;67659;45.554;11.812;2023-06-01T07:35:02;28.90;72.30
71672;DHT22;67659;45.554;11.812;2023-06-01T07:37:30;29.00;72.00
71672;DHT22;67659;45.554;11.812;2023-06-01T07:39:57;29.10;68.80
71672;DHT22;67659;45.554;11.812;2023-06-01T07:42:23;29.20;69.80
71672;DHT22;67659;45.554;11.812;2023-06-01T07:44:49;29.40;69.30
71672;DHT22;67659;45.554;11.812;2023-06-01T07:47:16;29.40;69.30
71672;DHT22;67659;45.554;11.812;2023-06-01T07:49:42;29.70;67.60
71672;DHT22;67659;45.554;11.812;2023-06-01T07:52:08;29.80;67.40
71672;DHT22;67659;45.554;11.812;2023-06-01T07:54:35;29.80;66.60
71672;DHT22;67659;45.554;11.812;2023-06-01T07:57:03;29.80;65.10
71672;DHT22;67659;45.554;11.812;2023-06-01T07:59:30;29.60;66.00
71672;DHT22;67659;45.554;11.812;2023-06-01T08:01:56;29.30;65.10
71672;DHT22;67659;45.554;11.812;2023-06-01T08:04:23;29.10;67.10
71672;DHT22;67659;45.554;11.812;2023-06-01T08:06:50;29.90;62.60
71672;DHT22;67659;45.554;11.812;2023-06-01T08:09:19;30.40;63.50
71672;DHT22;67659;45.554;11.812;2023-06-01T08:11:48;30.70;58.90
71672;DHT22;67659;45.554;11.812;2023-06-01T08:14:14;30.00;61.60
71672;DHT22;67659;45.554;11.812;2023-06-01T08:16:41;29.70;59.40
71672;DHT22;67659;45.554;11.812;2023-06-01T08:19:07;30.00;61.50
71672;DHT22;67659;45.554;11.812;2023-06-01T08:21:34;30.10;64.60
71672;DHT22;67659;45.554;11.812;2023-06-01T08:24:00;30.00;63.50
71672;DHT22;67659;45.554;11.812;2023-06-01T08:26:27;30.20;62.50
71672;DHT22;67659;45.554;11.812;2023-06-01T08:28:54;29.80;62.70
71672;DHT22;67659;45.554;11.812;2023-06-01T08:31:21;29.90;63.70
71672;DHT22;67659;45.554;11.812;2023-06-01T08:33:48;29.70;64.10
71672;DHT22;67659;45.554;11.812;2023-06-01T08:36:14;29.50;64.50
71672;DHT22;67659;45.554;11.812;2023-06-01T08:38:41;29.50;61.40
71672;DHT22;67659;45.554;11.812;2023-06-01T08:41:20;30.30;58.60
71672;DHT22;67659;45.554;11.812;2023-06-01T08:43:58;30.00;63.20
71672;DHT22;67659;45.554;11.812;2023-06-01T08:46:25;30.40;59.50
71672;DHT22;67659;45.554;11.812;2023-06-01T08:48:55;30.10;60.30
71672;DHT22;67659;45.554;11.812;2023-06-01T08:51:25;29.80;61.60
71672;DHT22;67659;45.554;11.812;2023-06-01T08:53:53;29.70;62.30
71672;DHT22;67659;45.554;11.812;2023-06-01T08:56:20;29.80;62.10
71672;DHT22;67659;45.554;11.812;2023-06-01T08:58:47;29.80;61.00
71672;DHT22;67659;45.554;11.812;2023-06-01T09:01:17;30.40;62.40
71672;DHT22;67659;45.554;11.812;2023-06-01T09:03:48;30.20;58.10
71672;DHT22;67659;45.554;11.812;2023-06-01T09:06:14;30.10;60.20
71672;DHT22;67659;45.554;11.812;2023-06-01T09:08:41;30.00;60.30
71672;DHT22;67659;45.554;11.812;2023-06-01T09:11:07;30.60;58.20
71672;DHT22;67659;45.554;11.812;2023-06-01T09:13:34;31.00;60.10
71672;DHT22;67659;45.554;11.812;2023-06-01T09:16:01;31.50;60.10
71672;DHT22;67659;45.554;11.812;2023-06-01T09:18:27;31.80;59.60
71672;DHT22;67659;45.554;11.812;2023-06-01T09:20:53;31.70;60.20
71672;DHT22;67659;45.554;11.812;2023-06-01T09:23:26;31.50;61.60
71672;DHT22;67659;45.554;11.812;2023-06-01T09:26:14;31.00;56.90
71672;DHT22;67659;45.554;11.812;2023-06-01T09:28:56;31.30;59.60
71672;DHT22;67659;45.554;11.812;2023-06-01T09:31:40;31.90;53.40
71672;DHT22;67659;45.554;11.812;2023-06-01T09:34:09;32.50;51.70
71672;DHT22;67659;45.554;11.812;2023-06-01T09:36:37;32.30;55.30
71672;DHT22;67659;45.554;11.812;2023-06-01T09:39:05;32.30;55.30
71672;DHT22;67659;45.554;11.812;2023-06-01T09:41:56;31.90;56.10
71672;DHT22;67659;45.554;11.812;2023-06-01T09:44:32;32.20;56.60
71672;DHT22;67659;45.554;11.812;2023-06-01T09:47:03;31.90;59.00
71672;DHT22;67659;45.554;11.812;2023-06-01T09:49:31;31.80;53.60
71672;DHT22;67659;45.554;11.812;2023-06-01T09:52:12;32.10;56.30
71672;DHT22;67659;45.554;11.812;2023-06-01T09:54:45;32.50;53.70
71672;DHT22;67659;45.554;11.812;2023-06-01T09:57:12;31.90;56.40
71672;DHT22;67659;45.554;11.812;2023-06-01T09:59:39;32.00;57.80
71672;DHT22;67659;45.554;11.812;2023-06-01T10:02:07;31.10;56.50
71672;DHT22;67659;45.554;11.812;2023-06-01T10:04:35;31.20;59.50
71672;DHT22;67659;45.554;11.812;2023-06-01T10:07:03;31.70;61.10
71672;DHT22;67659;45.554;11.812;2023-06-01T10:09:30;31.80;56.70
71672;DHT22;67659;45.554;11.812;2023-06-01T10:11:57;31.10;57.80
71672;DHT22;67659;45.554;11.812;2023-06-01T10:14:24;31.60;55.80
71672;DHT22;67659;45.554;11.812;2023-06-01T10:16:51;31.60;57.40
71672;DHT22;67659;45.554;11.812;2023-06-01T10:19:19;31.50;57.40
71672;DHT22;67659;45.554;11.812;2023-06-01T10:21:47;31.30;60.20
71672;DHT22;67659;45.554;11.812;2023-06-01T10:24:19;31.30;61.50
71672;DHT22;67659;45.554;11.812;2023-06-01T10:29:31;32.00;53.40
71672;DHT22;67659;45.554;11.812;2023-06-01T10:31:57;32.10;55.80
71672;DHT22;67659;45.554;11.812;2023-06-01T10:34:37;31.70;57.30
71672;DHT22;67659;45.554;11.812;2023-06-01T10:39:31;32.80;54.20
71672;DHT22;67659;45.554;11.812;2023-06-01T10:44:46;31.90;55.10
71672;DHT22;67659;45.554;11.812;2023-06-01T10:52:26;33.20;49.00
71672;DHT22;67659;45.554;11.812;2023-06-01T10:54:53;33.20;51.90
71672;DHT22;67659;45.554;11.812;2023-06-01T10:57:21;32.70;51.70
71672;DHT22;67659;45.554;11.812;2023-06-01T11:03:00;33.30;50.80
71672;DHT22;67659;45.554;11.812;2023-06-01T11:05:49;32.90;54.20
71672;DHT22;67659;45.554;11.812;2023-06-01T11:13:33;31.60;57.70
71672;DHT22;67659;45.554;11.812;2023-06-01T11:18:49;31.60;57.30
71672;DHT22;67659;45.554;11.812;2023-06-01T11:21:24;31.70;58.60
71672;DHT22;67659;45.554;11.812;2023-06-01T11:23:51;31.70;58.50
71672;DHT22;67659;45.554;11.812;2023-06-01T11:26:19;31.80;54.90
71672;DHT22;67659;45.554;11.812;2023-06-01T11:28:48;32.20;58.70
71672;DHT22;67659;45.554;11.812;2023-06-01T11:31:18;32.10;57.50
71672;DHT22;67659;45.554;11.812;2023-06-01T11:33:51;31.50;54.30
71672;DHT22;67659;45.554;11.812;2023-06-01T11:36:26;31.60;59.80
71672;DHT22;67659;45.554;11.812;2023-06-01T11:38:53;31.50;55.80
71672;DHT22;67659;45.554;11.812;2023-06-01T11:41:20;31.10;54.50
71672;DHT22;67659;45.554;11.812;2023-06-01T11:43:55;31.20;55.90
71672;DHT22;67659;45.554;11.812;2023-06-01T11:46:22;31.20;56.90
71672;DHT22;67659;45.554;11.812;2023-06-01T11:49:05;31.20;58.50
71672;DHT22;67659;45.554;11.812;2023-06-01T11:51:35;31.20;55.90
71672;DHT22;67659;45.554;11.812;2023-06-01T11:54:02;31.50;56.70
71672;DHT22;67659;45.554;11.812;2023-06-01T11:56:32;31.40;59.40
71672;DHT22;67659;45.554;11.812;2023-06-01T11:59:03;31.40;57.40
71672;DHT22;67659;45.554;11.812;2023-06-01T12:01:45;31.20;54.80
71672;DHT22;67659;45.554;11.812;2023-06-01T12:04:16;31.10;57.10
71672;DHT22;67659;45.554;11.812;2023-06-01T12:06:42;31.00;56.80
71672;DHT22;67659;45.554;11.812;2023-06-01T12:09:09;31.10;59.00
71672;DHT22;67659;45.554;11.812;2023-06-01T12:11:36;31.10;56.30
71672;DHT22;67659;45.554;11.812;2023-06-01T12:14:04;31.20;58.90
71672;DHT22;67659;45.554;11.812;2023-06-01T12:16:54;31.40;55.80
71672;DHT22;67659;45.554;11.812;2023-06-01T12:19:20;31.30;61.10
71672;DHT22;67659;45.554;11.812;2023-06-01T12:21:50;31.20;60.80
71672;DHT22;67659;45.554;11.812;2023-06-01T12:24:30;31.30;60.80
71672;DHT22;67659;45.554;11.812;2023-06-01T12:26:59;31.30;62.20
71672;DHT22;67659;45.554;11.812;2023-06-01T12:29:40;31.20;58.30
71672;DHT22;67659;45.554;11.812;2023-06-01T12:32:10;31.00;57.20
71672;DHT22;67659;45.554;11.812;2023-06-01T12:34:37;30.80;59.40
71672;DHT22;67659;45.554;11.812;2023-06-01T12:37:13;30.80;58.70
71672;DHT22;67659;45.554;11.812;2023-06-01T12:39:39;30.50;62.40
71672;DHT22;67659;45.554;11.812;2023-06-01T12:42:07;30.40;59.00
71672;DHT22;67659;45.554;11.812;2023-06-01T12:44:35;30.10;59.60
71672;DHT22;67659;45.554;11.812;2023-06-01T12:47:02;30.10;61.10
71672;DHT22;67659;45.554;11.812;2023-06-01T12:49:29;30.40;59.60
71672;DHT22;67659;45.554;11.812;2023-06-01T12:51:56;30.60;59.30
71672;DHT22;67659;45.554;11.812;2023-06-01T12:54:22;30.60;57.60
71672;DHT22;67659;45.554;11.812;2023-06-01T12:56:49;30.30;62.40
71672;DHT22;67659;45.554;11.812;2023-06-01T12:59:15;30.40;59.50
71672;DHT22;67659;45.554;11.812;2023-06-01T13:01:42;30.30;59.90
71672;DHT22;67659;45.554;11.812;2023-06-01T13:04:09;30.20;59.00
71672;DHT22;67659;45.554;11.812;2023-06-01T13:06:35;30.20;60.10
71672;DHT22;67659;45.554;11.812;2023-06-01T13:09:01;29.80;59.30
71672;DHT22;67659;45.554;11.812;2023-06-01T13:11:28;30.00;58.40
71672;DHT22;67659;45.554;11.812;2023-06-01T13:13:54;30.00;57.10
71672;DHT22;67659;45.554;11.812;2023-06-01T13:16:21;29.90;60.50
71672;DHT22;67659;45.554;11.812;2023-06-01T13:18:47;29.80;59.20
71672;DHT22;67659;45.554;11.812;2023-06-01T13:21:17;30.00;59.40
71672;DHT22;67659;45.554;11.812;2023-06-01T13:23:43;29.80;57.40
71672;DHT22;67659;45.554;11.812;2023-06-01T13:26:10;29.80;56.40
71672;DHT22;67659;45.554;11.812;2023-06-01T13:28:36;30.00;59.90
71672;DHT22;67659;45.554;11.812;2023-06-01T13:31:02;29.90;58.80
71672;DHT22;67659;45.554;11.812;2023-06-01T13:33:29;29.90;57.60
71672;DHT22;67659;45.554;11.812;2023-06-01T13:35:55;30.00;57.90
71672;DHT22;67659;45.554;11.812;2023-06-01T13:38:21;29.90;57.50
71672;DHT22;67659;45.554;11.812;2023-06-01T13:40:47;29.80;56.00
71672;DHT22;67659;45.554;11.812;2023-06-01T13:43:13;29.70;57.90
71672;DHT22;67659;45.554;11.812;2023-06-01T13:45:39;29.40;56.60
71672;DHT22;67659;45.554;11.812;2023-06-01T13:48:05;29.70;58.10
71672;DHT22;67659;45.554;11.812;2023-06-01T13:50:31;29.90;59.80
71672;DHT22;67659;45.554;11.812;2023-06-01T13:52:57;30.10;59.80
71672;DHT22;67659;45.554;11.812;2023-06-01T13:55:23;29.80;58.70
71672;DHT22;67659;45.554;11.812;2023-06-01T13:57:50;29.80;54.60
71672;DHT22;67659;45.554;11.812;2023-06-01T14:00:16;29.80;53.40
71672;DHT22;67659;45.554;11.812;2023-06-01T14:02:43;29.90;56.80
71672;DHT22;67659;45.554;11.812;2023-06-01T14:05:09;29.90;56.70
71672;DHT22;67659;45.554;11.812;2023-06-01T14:07:36;29.70;57.40
71672;DHT22;67659;45.554;11.812;2023-06-01T14:10:02;29.80;55.80
71672;DHT22;67659;45.554;11.812;2023-06-01T14:12:28;29.50;56.80
71672;DHT22;67659;45.554;11.812;2023-06-01T14:14:57;29.50;59.50
71672;DHT22;67659;45.554;11.812;2023-06-01T14:17:23;29.50;58.50
71672;DHT22;67659;45.554;11.812;2023-06-01T14:19:57;29.50;56.80
71672;DHT22;67659;45.554;11.812;2023-06-01T14:22:23;29.50;56.10
71672;DHT22;67659;45.554;11.812;2023-06-01T14:24:49;29.30;57.10
71672;DHT22;67659;45.554;11.812;2023-06-01T14:27:38;29.40;56.00
71672;DHT22;67659;45.554;11.812;2023-06-01T14:30:06;29.40;56.70
71672;DHT22;67659;45.554;11.812;2023-06-01T14:32:32;29.40;62.00
71672;DHT22;67659;45.554;11.812;2023-06-01T14:34:58;29.40;59.20
71672;DHT22;67659;45.554;11.812;2023-06-01T14:37:24;29.40;58.40
71672;DHT22;67659;45.554;11.812;2023-06-01T14:39:50;29.50;60.20
71672;DHT22;67659;45.554;11.812;2023-06-01T14:42:17;29.30;56.80
71672;DHT22;67659;45.554;11.812;2023-06-01T14:44:43;29.30;61.70
71672;DHT22;67659;45.554;11.812;2023-06-01T14:47:09;29.20;58.20
71672;DHT22;67659;45.554;11.812;2023-06-01T14:49:38;29.30;58.80
71672;DHT22;67659;45.554;11.812;2023-06-01T14:52:04;29.40;56.00
71672;DHT22;67659;45.554;11.812;2023-06-01T14:54:30;29.50;55.90
71672;DHT22;67659;45.554;11.812;2023-06-01T14:56:56;29.60;55.90
71672;DHT22;67659;45.554;11.812;2023-06-01T14:59:22;29.40;57.80
71672;DHT22;67659;45.554;11.812;2023-06-01T15:01:48;29.30;57.30
71672;DHT22;67659;45.554;11.812;2023-06-01T15:04:18;29.40;56.60
71672;DHT22;67659;45.554;11.812;2023-06-01T15:06:44;29.30;58.10
71672;DHT22;67659;45.554;11.812;2023-06-01T15:09:10;29.10;60.20
71672;DHT22;67659;45.554;11.812;2023-06-01T15:11:36;29.00;60.00
71672;DHT22;67659;45.554;11.812;2023-06-01T15:14:02;29.20;56.50
71672;DHT22;67659;45.554;11.812;2023-06-01T15:16:27;29.10;57.30
71672;DHT22;67659;45.554;11.812;2023-06-01T15:18:54;29.20;57.40
71672;DHT22;67659;45.554;11.812;2023-06-01T15:21:20;29.30;57.60
71672;DHT22;67659;45.554;11.812;2023-06-01T15:23:46;29.20;58.40
71672;DHT22;67659;45.554;11.812;2023-06-01T15:26:12;29.20;59.90
71672;DHT22;67659;45.554;11.812;2023-06-01T15:28:38;29.20;60.20
71672;DHT22;67659;45.554;11.812;2023-06-01T15:31:04;29.20;59.50
71672;DHT22;67659;45.554;11.812;2023-06-01T15:33:30;29.00;62.80
71672;DHT22;67659;45.554;11.812;2023-06-01T15:35:56;28.90;61.40
71672;DHT22;67659;45.554;11.812;2023-06-01T15:38:22;29.00;58.90
71672;DHT22;67659;45.554;11.812;2023-06-01T15:40:48;29.10;56.90
71672;DHT22;67659;45.554;11.812;2023-06-01T15:43:14;29.10;59.00
71672;DHT22;67659;45.554;11.812;2023-06-01T15:45:40;29.10;59.00
71672;DHT22;67659;45.554;11.812;2023-06-01T15:48:06;29.20;59.80
71672;DHT22;67659;45.554;11.812;2023-06-01T15:50:32;28.90;61.80
71672;DHT22;67659;45.554;11.812;2023-06-01T15:52:58;28.80;59.20
71672;DHT22;67659;45.554;11.812;2023-06-01T15:55:24;28.80;59.20